createdAt,value
2023-04-07T00:00:13.374Z,101438.84
2023-04-07T00:03:07.174Z,101439.72
2023-04-07T00:05:37.089Z,101433.53
2023-04-07T00:08:06.646Z,101425.56
2023-04-07T00:10:40.248Z,101430.00
2023-04-07T00:13:09.491Z,101434.38
2023-04-07T00:15:40.583Z,101423.78
2023-04-07T00:18:09.885Z,101413.16
2023-04-07T00:20:39.481Z,101418.44
2023-04-07T00:23:08.597Z,101415.78
2023-04-07T00:25:37.978Z,101415.81
2023-04-07T00:28:07.258Z,101416.69
2023-04-07T00:30:36.613Z,101407.84
2023-04-07T00:33:09.741Z,101413.16
2023-04-07T00:35:39.511Z,101413.16
2023-04-07T00:38:08.638Z,101407.91
2023-04-07T00:40:38.145Z,101410.56
2023-04-07T00:43:07.317Z,101406.13
2023-04-07T00:45:37.840Z,101404.28
2023-04-07T00:48:09.404Z,101393.69
2023-04-07T00:50:38.818Z,101390.16
2023-04-07T00:53:08.172Z,101393.69
2023-04-07T00:55:37.707Z,101390.16
2023-04-07T00:58:06.946Z,101385.75
2023-04-07T01:00:42.605Z,101390.19
2023-04-07T01:03:19.461Z,101391.06
2023-04-07T01:05:57.088Z,101379.56
2023-04-07T01:08:34.506Z,101377.78
2023-04-07T01:11:14.804Z,101376.03
2023-04-07T01:13:49.563Z,101380.44
2023-04-07T01:16:47.084Z,101366.31
2023-04-07T01:19:33.457Z,101367.19
2023-04-07T01:22:05.532Z,101370.75
2023-04-07T01:25:02.591Z,101378.66
2023-04-07T01:27:44.295Z,101358.34
2023-04-07T01:30:16.726Z,101363.66
2023-04-07T01:32:51.624Z,101372.47
2023-04-07T01:35:22.172Z,101371.59
2023-04-07T01:37:53.755Z,101366.28
2023-04-07T01:40:23.984Z,101368.84
2023-04-07T01:42:54.463Z,101373.34
2023-04-07T01:45:25.913Z,101365.44
2023-04-07T01:47:56.426Z,101362.78
2023-04-07T01:50:25.989Z,101360.13
2023-04-07T01:52:55.972Z,101366.31
2023-04-07T01:55:26.113Z,101357.50
2023-04-07T01:58:07.118Z,101362.75
2023-04-07T02:00:39.614Z,101356.56
2023-04-07T02:03:21.800Z,101361.88
2023-04-07T02:05:55.961Z,101357.44
2023-04-07T02:08:31.882Z,101363.66
2023-04-07T02:11:05.019Z,101372.41
2023-04-07T02:13:40.350Z,101368.91
2023-04-07T02:16:15.798Z,101366.28
2023-04-07T02:18:47.863Z,101361.88
2023-04-07T02:21:18.556Z,101368.94
2023-04-07T02:23:49.022Z,101379.56
2023-04-07T02:26:18.292Z,101368.03
2023-04-07T02:28:47.677Z,101359.19
2023-04-07T02:31:27.322Z,101354.78
2023-04-07T02:33:56.923Z,101358.31
2023-04-07T02:36:26.490Z,101360.94
2023-04-07T02:38:55.759Z,101358.31
2023-04-07T02:41:25.035Z,101357.44
2023-04-07T02:43:55.431Z,101354.75
2023-04-07T02:46:26.364Z,101352.97
2023-04-07T02:48:55.773Z,101347.69
2023-04-07T02:51:24.998Z,101344.16
2023-04-07T02:53:54.557Z,101352.97
2023-04-07T02:56:23.935Z,101353.00
2023-04-07T02:58:53.354Z,101353.00
2023-04-07T03:01:23.035Z,101353.81
2023-04-07T03:03:55.829Z,101349.38
2023-04-07T03:06:28.207Z,101345.88
2023-04-07T03:09:09.011Z,101349.41
2023-04-07T03:11:38.502Z,101347.66
2023-04-07T03:14:08.292Z,101350.31
2023-04-07T03:16:44.247Z,101346.78
2023-04-07T03:19:17.394Z,101352.94
2023-04-07T03:21:49.885Z,101345.91
2023-04-07T03:24:19.394Z,101349.41
2023-04-07T03:26:49.083Z,101344.97
2023-04-07T03:29:28.069Z,101352.94
2023-04-07T03:31:57.646Z,101355.63
2023-04-07T03:34:29.326Z,101361.75
2023-04-07T03:37:00.615Z,101356.47
2023-04-07T03:39:32.659Z,101357.38
2023-04-07T03:42:03.432Z,101345.88
2023-04-07T03:44:35.277Z,101352.97
2023-04-07T03:47:04.496Z,101346.75
2023-04-07T03:49:38.397Z,101348.50
2023-04-07T03:52:08.743Z,101350.25
2023-04-07T03:54:38.769Z,101344.97
2023-04-07T03:57:08.219Z,101352.00
2023-04-07T03:59:43.632Z,101357.28
2023-04-07T04:02:13.177Z,101359.97
2023-04-07T04:04:44.399Z,101356.44
2023-04-07T04:07:14.590Z,101359.03
2023-04-07T04:09:47.989Z,101353.72
2023-04-07T04:12:17.539Z,101359.06
2023-04-07T04:15:03.192Z,101353.72
2023-04-07T04:17:34.123Z,101347.53
2023-04-07T04:20:07.917Z,101351.09
2023-04-07T04:22:45.440Z,101343.97
2023-04-07T04:25:15.231Z,101359.00
2023-04-07T04:27:49.505Z,101359.03
2023-04-07T04:30:28.440Z,101351.94
2023-04-07T04:33:03.201Z,101352.88
2023-04-07T04:36:07.843Z,101355.47
2023-04-07T04:38:37.274Z,101347.53
2023-04-07T04:41:14.613Z,101341.31
2023-04-07T04:43:45.202Z,101340.41
2023-04-07T04:46:19.527Z,101335.03
2023-04-07T04:48:51.620Z,101332.44
2023-04-07T04:51:24.195Z,101324.50
2023-04-07T04:53:58.619Z,101326.25
2023-04-07T04:56:29.653Z,101329.75
2023-04-07T04:58:59.004Z,101326.16
2023-04-07T05:01:40.634Z,101329.75
2023-04-07T05:04:14.136Z,101335.06
2023-04-07T05:06:52.326Z,101339.53
2023-04-07T05:09:24.796Z,101339.50
2023-04-07T05:11:54.240Z,101333.31
2023-04-07T05:14:24.454Z,101335.94
2023-04-07T05:17:05.334Z,101332.41
2023-04-07T05:19:34.960Z,101323.59
2023-04-07T05:22:13.433Z,101328.03
2023-04-07T05:24:47.736Z,101335.09
2023-04-07T05:27:17.362Z,101341.28
2023-04-07T05:29:49.718Z,101340.41
2023-04-07T05:32:29.621Z,101349.22
2023-04-07T05:35:01.124Z,101352.69
2023-04-07T05:37:38.812Z,101358.03
2023-04-07T05:40:10.414Z,101358.06
2023-04-07T05:42:40.642Z,101358.84
2023-04-07T05:45:11.599Z,101363.28
2023-04-07T05:47:44.553Z,101367.63
2023-04-07T05:50:14.821Z,101365.88
2023-04-07T05:52:48.656Z,101360.59
2023-04-07T05:55:23.679Z,101359.59
2023-04-07T05:57:54.932Z,101354.25
2023-04-07T06:00:27.493Z,101355.16
2023-04-07T06:03:07.932Z,101351.66
2023-04-07T06:05:49.124Z,101364.88
2023-04-07T06:08:23.163Z,101357.88
2023-04-07T06:10:52.597Z,101366.66
2023-04-07T06:13:21.957Z,101369.28
2023-04-07T06:15:51.245Z,101367.47
2023-04-07T06:18:20.586Z,101371.00
2023-04-07T06:20:49.744Z,101374.50
2023-04-07T06:23:23.654Z,101378.88
2023-04-07T06:25:53.352Z,101388.63
2023-04-07T06:28:22.569Z,101379.72
2023-04-07T06:30:51.838Z,101377.09
2023-04-07T06:33:25.759Z,101378.81
2023-04-07T06:35:55.027Z,101382.31
2023-04-07T06:38:25.996Z,101378.72
2023-04-07T06:40:55.168Z,101388.44
2023-04-07T06:43:24.704Z,101378.63
2023-04-07T06:45:59.904Z,101368.81
2023-04-07T06:48:29.411Z,101385.66
2023-04-07T06:50:59.146Z,101380.25
2023-04-07T06:53:32.199Z,101379.34
2023-04-07T06:56:09.441Z,101377.59
2023-04-07T06:58:39.657Z,101381.13
2023-04-07T07:01:08.609Z,101376.69
2023-04-07T07:03:38.094Z,101381.00
2023-04-07T07:06:07.595Z,101388.13
2023-04-07T07:08:38.528Z,101381.97
2023-04-07T07:11:07.931Z,101375.78
2023-04-07T07:13:37.299Z,101379.34
2023-04-07T07:16:07.338Z,101381.06
2023-04-07T07:18:38.045Z,101385.50
2023-04-07T07:21:07.412Z,101390.78
2023-04-07T07:23:41.006Z,101384.59
2023-04-07T07:26:10.252Z,101388.13
2023-04-07T07:28:39.776Z,101381.97
2023-04-07T07:31:15.236Z,101387.19
2023-04-07T07:33:46.517Z,101376.56
2023-04-07T07:36:16.334Z,101378.28
2023-04-07T07:38:46.886Z,101384.38
2023-04-07T07:41:16.072Z,101372.88
2023-04-07T07:43:45.636Z,101379.03
2023-04-07T07:46:15.172Z,101370.16
2023-04-07T07:48:44.807Z,101380.78
2023-04-07T07:51:13.982Z,101386.94
2023-04-07T07:53:43.433Z,101394.03
2023-04-07T07:56:14.229Z,101389.47
2023-04-07T07:58:43.706Z,101390.28
2023-04-07T08:01:12.840Z,101388.44
2023-04-07T08:03:42.482Z,101383.13
2023-04-07T08:06:12.003Z,101382.19
2023-04-07T08:08:41.325Z,101382.16
2023-04-07T08:11:10.490Z,101389.16
2023-04-07T08:13:45.525Z,101392.56
2023-04-07T08:16:15.038Z,101399.59
2023-04-07T08:18:44.550Z,101392.50
2023-04-07T08:21:14.127Z,101386.19
2023-04-07T08:23:43.710Z,101392.31
2023-04-07T08:26:12.926Z,101391.22
2023-04-07T08:28:43.790Z,101390.31
2023-04-07T08:31:13.040Z,101391.97
2023-04-07T08:33:42.541Z,101392.75
2023-04-07T08:36:12.218Z,101388.25
2023-04-07T08:38:41.487Z,101394.34
2023-04-07T08:41:13.662Z,101397.88
2023-04-07T08:43:47.157Z,101392.47
2023-04-07T08:46:17.381Z,101403.09
2023-04-07T08:48:50.911Z,101399.47
2023-04-07T08:51:28.710Z,101391.47
2023-04-07T08:54:06.704Z,101393.19
2023-04-07T08:56:36.107Z,101387.84
2023-04-07T08:59:07.112Z,101389.66
2023-04-07T09:01:38.368Z,101396.75
2023-04-07T09:04:08.703Z,101389.59
2023-04-07T09:06:38.977Z,101394.84
2023-04-07T09:09:08.476Z,101386.81
2023-04-07T09:11:38.915Z,101382.38
2023-04-07T09:14:11.979Z,101385.88
2023-04-07T09:16:41.479Z,101379.56
2023-04-07T09:19:10.739Z,101384.94
2023-04-07T09:21:51.308Z,101384.00
2023-04-07T09:24:25.145Z,101389.28
2023-04-07T09:27:10.110Z,101388.34
2023-04-07T09:29:43.797Z,101393.59
2023-04-07T09:32:15.623Z,101393.56
2023-04-07T09:34:45.226Z,101371.13
2023-04-07T09:37:23.868Z,101372.84
2023-04-07T09:39:54.162Z,101367.50
2023-04-07T09:42:23.598Z,101371.88
2023-04-07T09:44:54.110Z,101375.31
2023-04-07T09:47:29.232Z,101376.91
2023-04-07T09:49:59.886Z,101375.00
2023-04-07T09:52:53.865Z,101376.59
2023-04-07T09:55:24.834Z,101373.69
2023-04-07T09:57:56.744Z,101378.88
2023-04-07T10:00:28.178Z,101364.50
2023-04-07T10:02:58.225Z,101379.41
2023-04-07T10:05:28.940Z,101371.25
2023-04-07T10:07:58.318Z,101375.50
2023-04-07T10:10:28.811Z,101369.19
2023-04-07T10:13:00.203Z,101365.38
2023-04-07T10:15:31.693Z,101370.66
2023-04-07T10:18:04.397Z,101358.94
2023-04-07T10:20:34.386Z,101376.53
2023-04-07T10:23:06.178Z,101371.97
2023-04-07T10:25:37.225Z,101384.19
2023-04-07T10:28:09.775Z,101378.59
2023-04-07T10:30:41.892Z,101375.75
2023-04-07T10:33:11.244Z,101372.94
2023-04-07T10:36:05.026Z,101370.97
2023-04-07T10:38:34.696Z,101364.53
2023-04-07T10:41:32.714Z,101369.63
2023-04-07T10:44:03.012Z,101350.06
2023-04-07T10:47:11.238Z,101352.44
2023-04-07T10:50:02.133Z,101346.84
2023-04-07T10:52:32.299Z,101345.69
2023-04-07T10:55:35.849Z,101345.63
2023-04-07T10:58:19.801Z,101351.38
2023-04-07T11:01:22.503Z,101349.22
2023-04-07T11:04:02.302Z,101351.50
2023-04-07T11:06:33.213Z,101349.31
2023-04-07T11:09:02.763Z,101351.53
2023-04-07T11:11:39.998Z,101357.78
2023-04-07T11:14:09.490Z,101356.81
2023-04-07T11:16:41.660Z,101349.28
2023-04-07T11:19:11.784Z,101353.31
2023-04-07T11:21:42.728Z,101357.34
2023-04-07T11:24:12.408Z,101354.47
2023-04-07T11:26:43.829Z,101350.56
2023-04-07T11:29:13.856Z,101351.06
2023-04-07T11:31:48.633Z,101349.97
2023-04-07T11:34:18.223Z,101351.47
2023-04-07T11:36:49.071Z,101348.59
2023-04-07T11:39:22.756Z,101337.50
2023-04-07T11:41:52.827Z,101340.16
2023-04-07T11:44:22.221Z,101339.94
2023-04-07T11:46:58.661Z,101340.69
2023-04-07T11:49:29.412Z,101332.47
2023-04-07T11:52:04.443Z,101322.25
2023-04-07T11:54:42.877Z,101321.06
2023-04-07T11:57:13.173Z,101322.59
2023-04-07T11:59:43.311Z,101336.47
2023-04-07T12:02:14.743Z,101325.44
2023-04-07T12:04:58.498Z,101329.56
2023-04-07T12:07:29.496Z,101324.19
2023-04-07T12:09:59.064Z,101325.94
2023-04-07T12:12:30.861Z,101330.06
2023-04-07T12:15:01.884Z,101324.63
2023-04-07T12:17:33.680Z,101327.69
2023-04-07T12:20:03.303Z,101329.03
2023-04-07T12:22:35.155Z,101330.41
2023-04-07T12:25:04.774Z,101330.00
2023-04-07T12:27:42.637Z,101333.38
2023-04-07T12:30:14.043Z,101341.94
2023-04-07T12:32:44.488Z,101341.75
2023-04-07T12:35:14.124Z,101338.25
2023-04-07T12:37:44.549Z,101333.03
2023-04-07T12:40:16.219Z,101338.16
2023-04-07T12:42:45.476Z,101340.00
2023-04-07T12:45:14.655Z,101342.63
2023-04-07T12:47:44.273Z,101348.00
2023-04-07T12:50:13.737Z,101342.00
2023-04-07T12:52:44.346Z,101343.00
2023-04-07T12:55:14.965Z,101347.38
2023-04-07T12:57:44.255Z,101346.66
2023-04-07T13:00:13.726Z,101348.75
2023-04-07T13:02:43.574Z,101340.97
2023-04-07T13:05:13.138Z,101347.09
2023-04-07T13:07:42.407Z,101344.25
2023-04-07T13:10:13.402Z,101350.38
2023-04-07T13:12:42.717Z,101347.63
2023-04-07T13:15:11.962Z,101358.47
2023-04-07T13:17:41.470Z,101365.28
2023-04-07T13:20:11.541Z,101357.03
2023-04-07T13:22:49.080Z,101360.72
2023-04-07T13:25:22.963Z,101362.31
2023-04-07T13:27:52.309Z,101355.06
2023-04-07T13:30:22.852Z,101361.25
2023-04-07T13:32:52.297Z,101355.78
2023-04-07T13:35:21.528Z,101357.38
2023-04-07T13:37:52.078Z,101357.72
2023-04-07T13:40:23.512Z,101365.53
2023-04-07T13:42:52.738Z,101354.00
2023-04-07T13:45:23.486Z,101348.53
2023-04-07T13:47:53.903Z,101352.94
2023-04-07T13:50:25.195Z,101352.22
2023-04-07T13:52:54.621Z,101350.47
2023-04-07T13:55:25.720Z,101360.47
2023-04-07T13:57:57.170Z,101351.13
2023-04-07T14:00:27.080Z,101352.28
2023-04-07T14:02:57.236Z,101352.22
2023-04-07T14:05:27.028Z,101350.22
2023-04-07T14:07:56.388Z,101351.38
2023-04-07T14:10:27.432Z,101350.50
2023-04-07T14:12:57.151Z,101345.13
2023-04-07T14:15:26.854Z,101340.00
2023-04-07T14:17:55.995Z,101337.59
2023-04-07T14:20:27.169Z,101338.63
2023-04-07T14:22:56.891Z,101328.69
2023-04-07T14:25:27.636Z,101328.13
2023-04-07T14:27:57.598Z,101335.38
2023-04-07T14:30:27.215Z,101327.63
2023-04-07T14:32:56.522Z,101342.84
2023-04-07T14:35:25.736Z,101342.09
2023-04-07T14:37:55.630Z,101334.09
2023-04-07T14:40:26.853Z,101335.22
2023-04-07T14:45:28.886Z,101332.53
2023-04-07T14:47:58.161Z,101332.59
2023-04-07T14:50:28.082Z,101336.22
2023-04-07T14:52:59.849Z,101332.63
2023-04-07T14:55:32.034Z,101333.66
2023-04-07T14:58:01.481Z,101338.41
2023-04-07T15:00:31.225Z,101332.06
2023-04-07T15:03:00.640Z,101334.00
2023-04-07T15:05:31.582Z,101331.44
2023-04-07T15:08:00.904Z,101329.97
2023-04-07T15:10:33.364Z,101334.53
2023-04-07T15:13:03.317Z,101326.56
2023-04-07T15:15:34.205Z,101325.00
2023-04-07T15:18:04.387Z,101327.72
2023-04-07T15:20:34.084Z,101328.53
2023-04-07T15:23:03.558Z,101324.28
2023-04-07T15:25:34.337Z,101321.69
2023-04-07T15:28:03.797Z,101329.72
2023-04-07T15:30:35.851Z,101323.41
2023-04-07T15:33:06.501Z,101323.47
2023-04-07T15:35:36.409Z,101319.81
2023-04-07T15:38:05.630Z,101323.88
2023-04-07T15:40:40.192Z,101315.22
2023-04-07T15:43:11.157Z,101316.97
2023-04-07T15:45:43.754Z,101310.44
2023-04-07T15:48:13.565Z,101318.22
2023-04-07T15:50:43.239Z,101317.81
2023-04-07T15:53:12.590Z,101313.78
2023-04-07T15:55:44.331Z,101320.63
2023-04-07T15:58:13.781Z,101318.63
2023-04-07T16:00:43.692Z,101318.88
2023-04-07T16:03:13.105Z,101306.47
2023-04-07T16:05:42.746Z,101310.97
2023-04-07T16:08:13.721Z,101315.47
2023-04-07T16:10:44.817Z,101311.81
2023-04-07T16:13:14.076Z,101309.19
2023-04-07T16:15:43.609Z,101312.56
2023-04-07T16:18:13.174Z,101321.38
2023-04-07T16:20:43.172Z,101310.78
2023-04-07T16:23:12.711Z,101320.59
2023-04-07T16:25:43.832Z,101328.75
2023-04-07T16:28:13.032Z,101324.03
2023-04-07T16:30:44.009Z,101325.81
2023-04-07T16:33:13.196Z,101317.16
2023-04-07T16:35:42.832Z,101327.72
2023-04-07T16:38:12.206Z,101332.00
2023-04-07T16:40:56.814Z,101324.41
2023-04-07T16:43:33.435Z,101328.31
2023-04-07T16:46:06.358Z,101332.09
2023-04-07T16:48:36.132Z,101334.16
2023-04-07T16:51:05.870Z,101335.44
2023-04-07T16:53:34.727Z,101332.19
2023-04-07T16:56:05.668Z,101345.34
2023-04-07T16:58:34.871Z,101342.72
2023-04-07T17:01:04.321Z,101338.97
2023-04-07T17:03:36.008Z,101345.78
2023-04-07T17:06:06.221Z,101341.81
2023-04-07T17:08:36.064Z,101354.28
2023-04-07T17:11:10.235Z,101352.16
2023-04-07T17:13:40.299Z,101365.56
2023-04-07T17:16:14.982Z,101360.34
2023-04-07T17:18:44.230Z,101366.78
2023-04-07T17:21:13.642Z,101371.59
2023-04-07T17:23:43.019Z,101371.34
2023-04-07T17:26:13.869Z,101371.66
2023-04-07T17:28:43.267Z,101385.31
2023-04-07T17:31:14.687Z,101384.84
2023-04-07T17:33:43.893Z,101386.28
2023-04-07T17:36:15.427Z,101390.19
2023-04-07T17:38:45.665Z,101392.25
2023-04-07T17:41:17.275Z,101387.50
2023-04-07T17:43:46.883Z,101388.72
2023-04-07T17:46:16.627Z,101395.16
2023-04-07T17:48:45.841Z,101402.69
2023-04-07T17:51:15.512Z,101404.69
2023-04-07T17:53:46.021Z,101406.78
2023-04-07T17:56:17.245Z,101420.41
2023-04-07T17:58:46.706Z,101416.34
2023-04-07T18:01:16.936Z,101412.84
2023-04-07T18:03:47.544Z,101412.25
2023-04-07T18:06:18.214Z,101420.50
2023-04-07T18:08:48.832Z,101418.91
2023-04-07T18:11:20.210Z,101412.06
2023-04-07T18:13:49.550Z,101409.59
2023-04-07T18:16:22.148Z,101418.75
2023-04-07T18:18:52.815Z,101424.91
2023-04-07T18:21:22.358Z,101425.22
2023-04-07T18:23:52.074Z,101424.69
2023-04-07T18:26:23.710Z,101433.53
2023-04-07T18:28:53.257Z,101424.59
2023-04-07T18:31:23.240Z,101431.94
2023-04-07T18:33:52.536Z,101438.53
2023-04-07T18:36:25.622Z,101435.13
2023-04-07T18:38:54.983Z,101451.34
2023-04-07T18:41:27.227Z,101452.34
2023-04-07T18:43:56.528Z,101447.06
2023-04-07T18:46:25.888Z,101452.38
2023-04-07T18:48:55.742Z,101448.03
2023-04-07T18:51:25.075Z,101447.25
2023-04-07T18:53:54.133Z,101451.78
2023-04-07T18:56:27.333Z,101448.47
2023-04-07T18:58:57.191Z,101453.03
2023-04-07T19:01:27.722Z,101454.75
2023-04-07T19:03:57.695Z,101457.75
2023-04-07T19:06:28.073Z,101460.31
2023-04-07T19:08:57.843Z,101470.34
2023-04-07T19:11:29.204Z,101468.47
2023-04-07T19:13:58.552Z,101470.44
2023-04-07T19:16:27.979Z,101471.44
2023-04-07T19:18:57.253Z,101469.81
2023-04-07T19:21:27.582Z,101465.31
2023-04-07T19:23:56.910Z,101464.59
2023-04-07T19:26:28.064Z,101461.06
2023-04-07T19:28:58.302Z,101470.88
2023-04-07T19:31:28.287Z,101473.69
2023-04-07T19:33:58.552Z,101475.50
2023-04-07T19:36:28.394Z,101475.50
2023-04-07T19:39:01.037Z,101486.25
2023-04-07T19:41:33.429Z,101485.41
2023-04-07T19:44:03.251Z,101482.94
2023-04-07T19:46:34.188Z,101470.41
2023-04-07T19:49:03.519Z,101472.34
2023-04-07T19:51:33.613Z,101477.66
2023-04-07T19:54:03.806Z,101488.34
2023-04-07T19:56:36.229Z,101499.03
2023-04-07T19:59:10.518Z,101482.22
2023-04-07T20:01:45.660Z,101496.47
2023-04-07T20:04:17.266Z,101493.91
2023-04-07T20:06:51.319Z,101490.38
2023-04-07T20:09:22.843Z,101494.84
2023-04-07T20:12:01.914Z,101489.44
2023-04-07T20:14:34.233Z,101494.78
2023-04-07T20:17:04.043Z,101493.06
2023-04-07T20:19:33.281Z,101497.56
2023-04-07T20:22:02.875Z,101503.84
2023-04-07T20:24:32.142Z,101492.31
2023-04-07T20:27:02.862Z,101494.22
2023-04-07T20:29:32.289Z,101493.44
2023-04-07T20:32:01.437Z,101494.38
2023-04-07T20:34:30.722Z,101500.75
2023-04-07T20:37:00.190Z,101507.94
2023-04-07T20:39:29.344Z,101501.88
2023-04-07T20:41:59.253Z,101496.63
2023-04-07T20:44:31.426Z,101502.88
2023-04-07T20:47:01.187Z,101496.78
2023-04-07T20:49:30.348Z,101493.28
2023-04-07T20:51:59.928Z,101506.63
2023-04-07T20:54:29.898Z,101504.91
2023-04-07T20:57:00.655Z,101507.63
2023-04-07T20:59:32.697Z,101516.66
2023-04-07T21:02:02.286Z,101519.31
2023-04-07T21:04:31.748Z,101517.59
2023-04-07T21:07:01.361Z,101527.44
2023-04-07T21:09:30.426Z,101529.25
2023-04-07T21:12:02.057Z,101528.41
2023-04-07T21:14:32.800Z,101525.00
2023-04-07T21:17:02.409Z,101520.59
2023-04-07T21:19:32.178Z,101519.81
2023-04-07T21:22:01.596Z,101520.75
2023-04-07T21:24:32.124Z,101522.59
2023-04-07T21:27:02.103Z,101524.44
2023-04-07T21:29:34.021Z,101529.84
2023-04-07T21:32:03.548Z,101519.25
2023-04-07T21:34:32.586Z,101525.56
2023-04-07T21:37:02.016Z,101529.16
2023-04-07T21:39:31.325Z,101530.09
2023-04-07T21:42:02.356Z,101532.84
2023-04-07T21:44:32.935Z,101540.88
2023-04-07T21:47:03.820Z,101541.81
2023-04-07T21:49:32.980Z,101533.00
2023-04-07T21:52:02.371Z,101541.00
2023-04-07T21:54:31.620Z,101537.50
2023-04-07T21:57:01.403Z,101544.66
2023-04-07T21:59:30.464Z,101544.66
2023-04-07T22:02:01.317Z,101544.69
2023-04-07T22:04:30.815Z,101541.34
2023-04-07T22:07:00.772Z,101539.50
2023-04-07T22:09:29.920Z,101550.16
2023-04-07T22:11:59.294Z,101553.75
2023-04-07T22:14:29.277Z,101550.25
2023-04-07T22:17:00.658Z,101543.25
2023-04-07T22:19:29.846Z,101548.59
2023-04-07T22:21:59.223Z,101548.72
2023-04-07T22:24:28.489Z,101539.78
2023-04-07T22:26:58.862Z,101534.50
2023-04-07T22:29:29.474Z,101539.88
2023-04-07T22:32:00.460Z,101552.34
2023-04-07T22:34:29.733Z,101547.88
2023-04-07T22:36:59.063Z,101555.97
2023-04-07T22:39:28.237Z,101564.75
2023-04-07T22:41:57.588Z,101570.06
2023-04-07T22:44:26.773Z,101570.09
2023-04-07T22:46:56.461Z,101563.09
2023-04-07T22:49:28.238Z,101556.09
2023-04-07T22:51:57.730Z,101554.31
2023-04-07T22:54:26.820Z,101560.53
2023-04-07T22:56:56.825Z,101557.94
2023-04-07T22:59:25.820Z,101566.88
2023-04-07T23:01:57.706Z,101563.31
2023-04-07T23:04:28.669Z,101552.72
2023-04-07T23:06:58.119Z,101560.72
2023-04-07T23:09:27.668Z,101574.00
2023-04-07T23:11:57.950Z,101569.56
2023-04-07T23:14:27.271Z,101573.97
2023-04-07T23:16:57.897Z,101575.75
2023-04-07T23:19:28.535Z,101580.22
2023-04-07T23:21:58.001Z,101578.41
2023-04-07T23:24:27.273Z,101577.59
2023-04-07T23:26:56.986Z,101582.03
2023-04-07T23:29:26.203Z,101579.38
2023-04-07T23:31:55.628Z,101579.38
2023-04-07T23:34:25.205Z,101571.41
2023-04-07T23:36:55.685Z,101567.00
2023-04-07T23:39:24.777Z,101565.25
2023-04-07T23:41:54.238Z,101555.53
2023-04-07T23:44:23.338Z,101563.44
2023-04-07T23:46:52.774Z,101557.34
2023-04-07T23:49:22.266Z,101560.88
2023-04-07T23:51:52.042Z,101559.13
2023-04-07T23:54:22.614Z,101560.09
2023-04-07T23:56:52.055Z,101564.56
2023-04-07T23:59:21.252Z,101560.13
